createdAt,value
2019-01-14T00:02:12.278Z,57.67
2019-01-14T00:04:44.499Z,55.45
2019-01-14T00:07:16.501Z,54.98
2019-01-14T00:09:48.058Z,53.02
2019-01-14T00:12:19.549Z,52.73
2019-01-14T00:14:52.274Z,58.63
2019-01-14T00:20:59.823Z,60.23
2019-01-14T00:23:32.281Z,52.88
2019-01-14T00:26:03.806Z,55.78
2019-01-14T00:28:35.314Z,53.05
2019-01-14T00:31:06.796Z,50.98
2019-01-14T00:33:38.414Z,54.50
2019-01-14T00:36:09.896Z,54.93
2019-01-14T00:38:53.259Z,51.58
2019-01-14T00:41:24.673Z,51.75
2019-01-14T00:43:56.199Z,50.65
2019-01-14T00:46:28.880Z,54.33
2019-01-14T00:49:00.405Z,53.15
2019-01-14T00:51:31.981Z,52.17
2019-01-14T00:54:03.472Z,51.68
2019-01-14T00:56:34.786Z,50.85
2019-01-14T00:59:06.394Z,49.13
2019-01-14T01:01:39.063Z,48.52
2019-01-14T01:04:10.546Z,49.77
2019-01-14T01:06:42.381Z,50.70
2019-01-14T01:09:13.926Z,55.50
2019-01-14T01:11:46.076Z,54.13
2019-01-14T01:14:17.693Z,56.35
2019-01-14T01:16:49.414Z,49.60
2019-01-14T01:19:20.816Z,50.95
2019-01-14T01:21:52.898Z,54.90
2019-01-14T01:24:24.491Z,50.80
2019-01-14T01:26:56.006Z,48.48
2019-01-14T01:29:27.519Z,57.10
2019-01-14T01:31:58.995Z,61.58
2019-01-14T01:34:30.557Z,57.00
2019-01-14T01:37:01.937Z,51.63
2019-01-14T01:39:33.474Z,55.63
2019-01-14T01:42:05.074Z,53.45
2019-01-14T01:44:36.178Z,50.67
2019-01-14T01:47:07.441Z,51.33
2019-01-14T01:49:38.755Z,54.85
2019-01-14T01:52:10.194Z,54.05
2019-01-14T01:54:41.528Z,53.05
2019-01-14T01:57:13.034Z,53.70
2019-01-14T01:59:44.333Z,51.23
2019-01-14T02:02:17.005Z,53.55
2019-01-14T02:04:48.534Z,72.20
2019-01-14T02:07:20.982Z,71.70
2019-01-14T02:09:52.286Z,69.67
2019-01-14T02:12:23.714Z,56.48
2019-01-14T02:14:56.100Z,55.90
2019-01-14T02:17:27.567Z,54.67
2019-01-14T02:19:59.114Z,54.23
2019-01-14T02:22:30.400Z,55.85
2019-01-14T02:25:01.705Z,58.63
2019-01-14T02:27:33.451Z,58.68
2019-01-14T02:30:05.610Z,50.30
2019-01-14T02:32:56.927Z,57.40
2019-01-14T02:35:28.281Z,57.00
2019-01-14T02:37:59.684Z,52.17
2019-01-14T02:40:31.917Z,56.45
2019-01-14T02:43:03.441Z,52.35
2019-01-14T02:45:34.725Z,53.25
2019-01-14T02:48:06.903Z,55.28
2019-01-14T02:50:38.234Z,54.38
2019-01-14T02:53:09.601Z,52.70
2019-01-14T02:55:41.284Z,46.20
2019-01-14T02:58:12.739Z,46.80
2019-01-14T03:00:44.116Z,42.38
2019-01-14T03:03:15.624Z,45.28
2019-01-14T03:05:46.866Z,45.52
2019-01-14T03:08:18.508Z,41.98
2019-01-14T03:10:49.867Z,39.85
2019-01-14T03:13:21.165Z,42.60
2019-01-14T03:15:52.515Z,41.35
2019-01-14T03:18:23.925Z,40.73
2019-01-14T03:20:55.244Z,42.80
2019-01-14T03:23:26.643Z,42.27
2019-01-14T03:25:58.513Z,46.83
2019-01-14T03:28:29.896Z,45.55
2019-01-14T03:31:01.570Z,44.53
2019-01-14T03:33:33.188Z,48.68
2019-01-14T03:36:04.771Z,45.80
2019-01-14T03:38:36.108Z,44.18
2019-01-14T03:41:07.384Z,46.45
2019-01-14T03:43:38.730Z,38.02
2019-01-14T03:46:10.075Z,40.85
2019-01-14T03:48:41.699Z,50.25
2019-01-14T03:51:13.286Z,44.45
2019-01-14T03:53:44.565Z,47.38
2019-01-14T03:56:16.117Z,42.65
2019-01-14T03:58:47.491Z,42.58
2019-01-14T04:01:18.905Z,52.20
2019-01-14T04:03:51.128Z,46.75
2019-01-14T04:06:33.612Z,44.33
2019-01-14T04:09:06.469Z,49.23
2019-01-14T04:11:37.911Z,44.48
2019-01-14T04:14:09.634Z,54.60
2019-01-14T04:16:41.141Z,48.78
2019-01-14T04:19:12.816Z,54.80
2019-01-14T04:21:44.362Z,54.93
2019-01-14T04:24:15.938Z,64.17
2019-01-14T04:26:47.511Z,53.52
2019-01-14T04:29:19.977Z,49.03
2019-01-14T04:31:51.463Z,46.55
2019-01-14T04:34:22.884Z,42.85
2019-01-14T04:36:54.280Z,49.73
2019-01-14T04:39:26.198Z,57.55
2019-01-14T04:41:57.473Z,64.20
2019-01-14T04:44:28.738Z,60.15
2019-01-14T04:47:00.031Z,47.93
2019-01-14T04:49:31.261Z,39.85
2019-01-14T04:52:02.561Z,39.38
2019-01-14T04:54:34.051Z,48.60
2019-01-14T04:57:06.084Z,52.48
2019-01-14T04:59:37.609Z,55.38
2019-01-14T05:02:09.072Z,54.05
2019-01-14T05:04:40.648Z,58.15
2019-01-14T05:07:12.078Z,54.67
2019-01-14T05:09:43.683Z,55.58
2019-01-14T05:12:15.195Z,69.97
2019-01-14T05:14:46.695Z,72.17
2019-01-14T05:17:18.356Z,64.22
2019-01-14T05:19:49.832Z,73.05
2019-01-14T05:22:21.142Z,64.40
2019-01-14T05:24:53.396Z,74.42
2019-01-14T05:27:24.753Z,75.17
2019-01-14T05:29:57.095Z,79.72
2019-01-14T05:32:28.652Z,86.90
2019-01-14T05:35:00.288Z,76.17
2019-01-14T05:37:37.341Z,73.65
2019-01-14T05:40:09.167Z,70.78
2019-01-14T05:42:40.519Z,89.55
2019-01-14T05:45:11.946Z,75.87
2019-01-14T05:47:54.986Z,69.17
2019-01-14T05:50:26.538Z,65.67
2019-01-14T05:52:58.004Z,69.17
2019-01-14T05:55:29.564Z,58.50
2019-01-14T05:58:00.923Z,59.90
2019-01-14T06:01:02.468Z,61.85
2019-01-14T06:03:34.011Z,70.52
2019-01-14T06:06:05.376Z,67.20
2019-01-14T06:08:36.652Z,78.78
2019-01-14T06:11:08.166Z,113.45
2019-01-14T06:13:39.584Z,112.88
2019-01-14T06:16:11.267Z,94.28
2019-01-14T06:18:42.646Z,86.53
2019-01-14T06:21:27.053Z,89.30
2019-01-14T06:23:58.406Z,68.60
2019-01-14T06:26:29.873Z,101.40
2019-01-14T06:29:01.503Z,81.80
2019-01-14T06:31:32.850Z,78.12
2019-01-14T06:34:04.384Z,72.82
2019-01-14T06:36:36.354Z,73.35
2019-01-14T06:39:10.783Z,70.90
2019-01-14T06:41:42.150Z,80.17
2019-01-14T06:44:14.345Z,68.45
2019-01-14T06:46:45.733Z,70.87
2019-01-14T06:49:16.985Z,65.47
2019-01-14T06:51:48.213Z,66.22
2019-01-14T06:54:19.329Z,67.12
2019-01-14T06:56:51.937Z,76.25
2019-01-14T06:59:24.316Z,89.42
2019-01-14T07:01:55.621Z,76.40
2019-01-14T07:04:27.076Z,75.00
2019-01-14T07:06:58.930Z,76.80
2019-01-14T07:09:30.512Z,79.87
2019-01-14T07:12:01.966Z,81.02
2019-01-14T07:14:33.534Z,76.15
2019-01-14T07:17:06.125Z,78.35
2019-01-14T07:19:37.623Z,77.72
2019-01-14T07:22:09.154Z,93.45
2019-01-14T07:24:40.725Z,80.75
2019-01-14T07:27:11.949Z,86.70
2019-01-14T07:29:43.283Z,80.03
2019-01-14T07:32:15.201Z,83.95
2019-01-14T07:34:46.565Z,88.30
2019-01-14T07:37:18.640Z,85.57
2019-01-14T07:39:49.839Z,82.27
2019-01-14T07:42:21.282Z,81.72
2019-01-14T07:44:53.751Z,94.58
2019-01-14T07:47:24.902Z,79.10
2019-01-14T07:49:56.992Z,81.15
2019-01-14T07:52:29.238Z,79.75
2019-01-14T07:55:00.638Z,80.07
2019-01-14T07:57:32.161Z,76.97
2019-01-14T08:00:14.977Z,81.85
2019-01-14T08:02:46.193Z,80.67
2019-01-14T08:05:17.813Z,72.30
2019-01-14T08:07:50.187Z,70.97
2019-01-14T08:10:21.616Z,74.90
2019-01-14T08:12:52.970Z,69.12
2019-01-14T08:15:25.448Z,70.20
2019-01-14T08:17:56.974Z,63.45
2019-01-14T08:20:40.278Z,72.00
2019-01-14T08:23:12.512Z,126.55
2019-01-14T08:25:43.830Z,133.90
2019-01-14T08:28:15.235Z,64.07
2019-01-14T08:30:46.686Z,61.18
2019-01-14T08:33:18.079Z,60.45
2019-01-14T08:35:49.410Z,56.98
2019-01-14T08:38:21.558Z,56.63
2019-01-14T08:40:53.399Z,59.45
2019-01-14T08:43:26.362Z,60.20
2019-01-14T08:45:59.127Z,55.08
2019-01-14T08:48:30.694Z,57.00
2019-01-14T08:51:02.138Z,58.55
2019-01-14T08:53:34.231Z,52.95
2019-01-14T08:56:05.881Z,51.60
2019-01-14T08:58:37.385Z,50.80
2019-01-14T09:01:08.984Z,54.07
2019-01-14T09:03:40.523Z,47.33
2019-01-14T09:06:12.685Z,53.77
2019-01-14T09:08:44.122Z,48.00
2019-01-14T09:11:15.660Z,44.70
2019-01-14T09:13:48.116Z,41.50
2019-01-14T09:16:19.428Z,48.67
2019-01-14T09:18:51.967Z,49.73
2019-01-14T09:21:23.404Z,50.13
2019-01-14T09:23:54.732Z,47.83
2019-01-14T09:26:26.267Z,44.43
2019-01-14T09:28:57.790Z,50.47
2019-01-14T09:31:30.869Z,46.80
2019-01-14T09:34:05.027Z,40.03
2019-01-14T09:36:36.575Z,44.03
2019-01-14T09:39:10.640Z,51.10
2019-01-14T09:41:43.016Z,42.67
2019-01-14T09:44:14.366Z,40.67
2019-01-14T09:46:45.862Z,40.27
2019-01-14T09:49:17.684Z,45.17
2019-01-14T09:51:50.022Z,46.27
2019-01-14T09:54:21.481Z,42.33
2019-01-14T09:56:53.072Z,47.77
2019-01-14T09:59:24.642Z,40.20
2019-01-14T10:01:56.161Z,38.37
2019-01-14T10:04:27.796Z,48.27
2019-01-14T10:06:59.302Z,41.27
2019-01-14T10:09:30.710Z,43.17
2019-01-14T10:12:02.333Z,39.17
2019-01-14T10:14:33.621Z,45.93
2019-01-14T10:17:05.645Z,44.93
2019-01-14T10:19:55.962Z,47.03
2019-01-14T10:22:27.470Z,46.60
2019-01-14T10:24:58.879Z,42.43
2019-01-14T10:27:30.347Z,51.60
2019-01-14T10:30:01.720Z,61.83
2019-01-14T10:32:32.913Z,39.30
2019-01-14T10:35:04.506Z,44.80
2019-01-14T10:37:35.777Z,47.70
2019-01-14T10:40:08.859Z,43.70
2019-01-14T10:42:40.163Z,51.57
2019-01-14T10:45:15.356Z,49.20
2019-01-14T10:47:46.798Z,44.90
2019-01-14T10:50:18.097Z,49.43
2019-01-14T10:52:49.448Z,46.50
2019-01-14T10:55:21.138Z,44.27
2019-01-14T10:57:52.578Z,41.27
2019-01-14T11:00:26.247Z,40.73
2019-01-14T11:02:58.865Z,45.80
2019-01-14T11:05:31.892Z,36.93
2019-01-14T11:08:03.306Z,41.37
2019-01-14T11:10:34.691Z,38.17
2019-01-14T11:13:06.299Z,60.13
2019-01-14T11:15:37.932Z,44.63
2019-01-14T11:18:09.261Z,48.30
2019-01-14T11:20:40.713Z,43.90
2019-01-14T11:23:13.355Z,43.70
2019-01-14T11:25:56.017Z,47.17
2019-01-14T11:28:27.399Z,43.97
2019-01-14T11:30:58.902Z,38.13
2019-01-14T11:33:30.306Z,38.60
2019-01-14T11:36:01.574Z,42.10
2019-01-14T11:38:44.085Z,38.13
2019-01-14T11:41:15.787Z,37.17
2019-01-14T11:43:47.193Z,46.37
2019-01-14T11:46:18.565Z,44.23
2019-01-14T11:48:50.004Z,49.30
2019-01-14T11:51:21.412Z,52.63
2019-01-14T11:53:52.621Z,41.50
2019-01-14T11:56:23.999Z,44.27
2019-01-14T11:58:55.374Z,39.60
2019-01-14T12:01:26.888Z,58.43
2019-01-14T12:03:58.253Z,42.40
2019-01-14T12:06:29.637Z,48.37
2019-01-14T12:09:01.224Z,44.27
2019-01-14T12:11:33.645Z,50.30
2019-01-14T12:14:05.162Z,68.27
2019-01-14T12:16:36.434Z,43.60
2019-01-14T12:19:08.103Z,38.93
2019-01-14T12:21:39.277Z,71.43
2019-01-14T12:24:10.666Z,46.03
2019-01-14T12:26:42.618Z,73.27
2019-01-14T12:29:14.290Z,71.37
2019-01-14T12:31:46.562Z,50.50
2019-01-14T12:34:17.877Z,40.60
2019-01-14T12:36:49.775Z,59.97
2019-01-14T12:39:21.270Z,50.07
2019-01-14T12:41:52.737Z,62.40
2019-01-14T12:44:25.053Z,73.37
2019-01-14T12:46:57.344Z,72.83
2019-01-14T12:49:28.878Z,52.43
2019-01-14T12:52:00.497Z,60.50
2019-01-14T12:54:31.881Z,61.57
2019-01-14T12:57:03.182Z,67.43
2019-01-14T12:59:35.224Z,50.83
2019-01-14T13:02:06.509Z,48.93
2019-01-14T13:04:38.185Z,47.93
2019-01-14T13:07:09.650Z,59.63
2019-01-14T13:09:41.131Z,55.00
2019-01-14T13:12:13.265Z,55.10
2019-01-14T13:14:44.566Z,54.57
2019-01-14T13:17:15.844Z,58.57
2019-01-14T13:19:47.168Z,46.80
2019-01-14T13:22:18.967Z,48.10
2019-01-14T13:24:50.532Z,56.87
2019-01-14T13:27:22.080Z,57.60
2019-01-14T13:29:53.502Z,57.50
2019-01-14T13:32:24.998Z,50.13
2019-01-14T13:34:56.979Z,26.00
2019-01-14T13:37:28.497Z,25.57
2019-01-14T13:40:01.166Z,21.70
2019-01-14T13:42:32.648Z,26.73
2019-01-14T13:45:04.139Z,25.60
2019-01-14T13:47:35.566Z,23.40
2019-01-14T13:50:09.237Z,22.53
2019-01-14T13:52:40.895Z,31.40
2019-01-14T13:55:12.622Z,30.73
2019-01-14T13:57:44.083Z,65.73
2019-01-14T14:00:21.011Z,80.63
2019-01-14T14:02:52.615Z,34.90
2019-01-14T14:05:24.385Z,31.47
2019-01-14T14:07:55.913Z,30.23
2019-01-14T14:10:29.926Z,31.40
2019-01-14T14:13:01.275Z,45.30
2019-01-14T14:15:32.751Z,43.30
2019-01-14T14:18:04.230Z,43.07
2019-01-14T14:20:35.407Z,45.47
2019-01-14T14:23:07.551Z,47.70
2019-01-14T14:25:38.810Z,40.27
2019-01-14T14:28:10.436Z,43.00
2019-01-14T14:30:42.003Z,40.70
2019-01-14T14:33:13.570Z,42.27
2019-01-14T14:35:46.052Z,47.80
2019-01-14T14:38:17.619Z,47.97
2019-01-14T14:40:49.039Z,53.37
2019-01-14T14:43:21.610Z,37.70
2019-01-14T14:46:04.906Z,37.03
2019-01-14T14:48:36.430Z,32.97
2019-01-14T14:51:07.840Z,27.47
2019-01-14T14:53:39.305Z,40.10
2019-01-14T14:56:10.800Z,21.50
2019-01-14T14:58:42.026Z,30.53
2019-01-14T15:01:13.562Z,30.77
2019-01-14T15:03:44.994Z,40.67
2019-01-14T15:06:16.376Z,52.30
2019-01-14T15:08:48.942Z,49.70
2019-01-14T15:11:20.510Z,44.33
2019-01-14T15:13:52.048Z,42.33
2019-01-14T15:16:23.399Z,46.93
2019-01-14T15:18:54.617Z,53.13
2019-01-14T15:21:26.297Z,63.27
2019-01-14T15:23:57.613Z,96.03
2019-01-14T15:26:29.082Z,43.33
2019-01-14T15:29:00.498Z,44.60
2019-01-14T15:31:32.899Z,35.63
2019-01-14T15:34:05.678Z,43.20
2019-01-14T15:36:37.053Z,48.73
2019-01-14T15:39:10.910Z,46.30
2019-01-14T15:41:42.290Z,49.17
2019-01-14T15:44:13.821Z,73.77
2019-01-14T15:46:45.501Z,74.30
2019-01-14T15:49:16.964Z,73.47
2019-01-14T15:51:48.522Z,65.67
2019-01-14T15:54:21.170Z,53.83
2019-01-14T15:56:52.886Z,67.70
2019-01-14T15:59:24.276Z,80.33
2019-01-14T16:01:55.754Z,45.50
2019-01-14T16:04:27.270Z,38.37
2019-01-14T16:06:58.677Z,46.07
2019-01-14T16:09:30.182Z,41.07
2019-01-14T16:12:02.006Z,34.23
2019-01-14T16:14:33.537Z,106.70
2019-01-14T16:17:05.000Z,133.13
2019-01-14T16:19:36.174Z,66.80
2019-01-14T16:22:07.631Z,72.17
2019-01-14T16:24:39.175Z,54.97
2019-01-14T16:27:11.855Z,51.07
2019-01-14T16:29:43.354Z,59.43
2019-01-14T16:32:26.300Z,61.90
2019-01-14T16:34:57.853Z,76.50
2019-01-14T16:37:29.436Z,66.23
2019-01-14T16:40:02.924Z,56.47
2019-01-14T16:42:34.344Z,56.10
2019-01-14T16:45:07.335Z,64.00
2019-01-14T16:47:38.897Z,74.73
2019-01-14T16:50:11.196Z,83.27
2019-01-14T16:52:42.630Z,74.53
2019-01-14T16:55:16.900Z,84.23
2019-01-14T16:57:48.485Z,102.43
2019-01-14T17:00:20.312Z,132.13
2019-01-14T17:02:51.762Z,106.70
2019-01-14T17:05:23.090Z,90.37
2019-01-14T17:07:54.421Z,77.80
2019-01-14T17:10:25.919Z,70.93
2019-01-14T17:12:57.297Z,71.33
2019-01-14T17:15:29.434Z,67.83
2019-01-14T17:18:00.817Z,58.53
2019-01-14T17:20:32.112Z,58.80
2019-01-14T17:23:03.499Z,67.43
2019-01-14T17:25:34.742Z,57.83
2019-01-14T17:28:07.106Z,55.97
2019-01-14T17:30:39.637Z,61.70
2019-01-14T17:33:11.077Z,57.77
2019-01-14T17:35:42.540Z,54.13
2019-01-14T17:38:13.933Z,60.67
2019-01-14T17:40:45.298Z,50.33
2019-01-14T17:43:16.770Z,49.47
2019-01-14T17:45:49.234Z,128.80
2019-01-14T17:48:20.544Z,68.07
2019-01-14T17:50:51.991Z,43.63
2019-01-14T17:53:23.542Z,42.07
2019-01-14T17:55:55.438Z,41.47
2019-01-14T17:58:26.944Z,41.93
2019-01-14T18:00:58.419Z,37.40
2019-01-14T18:03:29.982Z,36.93
2019-01-14T18:06:01.254Z,33.43
2019-01-14T18:08:32.370Z,35.20
2019-01-14T18:11:03.604Z,43.17
2019-01-14T18:13:35.124Z,55.90
2019-01-14T18:16:06.462Z,254.57
2019-01-14T18:18:37.834Z,181.60
2019-01-14T18:21:13.942Z,166.67
2019-01-14T18:23:42.345Z,180.30
2019-01-14T18:26:13.609Z,157.37
2019-01-14T18:28:45.066Z,176.33
2019-01-14T18:31:16.665Z,194.87
2019-01-14T18:33:48.159Z,114.70
2019-01-14T18:36:19.770Z,118.20
2019-01-14T18:38:51.402Z,109.50
2019-01-14T18:41:23.101Z,108.00
2019-01-14T18:43:54.545Z,80.67
2019-01-14T18:46:25.998Z,114.20
2019-01-14T18:48:57.502Z,116.50
2019-01-14T18:51:28.830Z,114.40
2019-01-14T18:54:00.263Z,119.13
2019-01-14T18:56:32.178Z,112.57
2019-01-14T18:59:04.013Z,134.43
2019-01-14T19:01:35.488Z,128.67
2019-01-14T19:04:06.943Z,133.30
2019-01-14T19:06:38.231Z,131.23
2019-01-14T19:09:10.370Z,128.23
2019-01-14T19:11:42.000Z,116.67
2019-01-14T19:14:13.824Z,118.00
2019-01-14T19:16:45.266Z,119.43
2019-01-14T19:19:16.944Z,125.83
2019-01-14T19:21:48.855Z,130.30
2019-01-14T19:24:20.547Z,137.67
2019-01-14T19:26:52.157Z,126.93
2019-01-14T19:29:23.577Z,139.50
2019-01-14T19:31:54.777Z,121.47
2019-01-14T19:34:26.166Z,85.23
2019-01-14T19:36:58.258Z,57.77
2019-01-14T19:39:31.347Z,54.87
2019-01-14T19:42:04.673Z,52.50
2019-01-14T19:44:36.267Z,51.57
2019-01-14T19:47:07.694Z,45.90
2019-01-14T19:49:39.436Z,47.93
2019-01-14T19:52:10.922Z,46.33
2019-01-14T19:54:42.235Z,47.33
2019-01-14T19:57:13.778Z,43.45
2019-01-14T19:59:45.003Z,42.27
2019-01-14T20:02:16.610Z,43.50
2019-01-14T20:04:47.827Z,42.47
2019-01-14T20:07:19.016Z,41.87
2019-01-14T20:09:51.455Z,39.33
2019-01-14T20:12:41.581Z,39.88
2019-01-14T20:15:16.061Z,42.98
2019-01-14T20:17:48.007Z,43.13
2019-01-14T20:20:19.662Z,39.90
2019-01-14T20:22:50.986Z,74.13
2019-01-14T20:25:22.472Z,40.53
2019-01-14T20:27:54.004Z,74.57
2019-01-14T20:30:26.029Z,68.20
2019-01-14T20:32:57.365Z,53.37
2019-01-14T20:35:29.286Z,59.17
2019-01-14T20:38:00.736Z,128.30
2019-01-14T20:40:32.004Z,112.27
2019-01-14T20:43:03.613Z,110.70
2019-01-14T20:45:34.734Z,109.40
2019-01-14T20:48:06.389Z,110.87
2019-01-14T20:50:37.807Z,116.60
2019-01-14T20:53:13.595Z,89.30
2019-01-14T20:55:42.263Z,80.47
2019-01-14T20:58:13.589Z,64.92
2019-01-14T21:00:44.993Z,75.07
2019-01-14T21:03:16.589Z,73.63
2019-01-14T21:05:47.950Z,70.25
2019-01-14T21:08:19.427Z,67.13
2019-01-14T21:10:50.910Z,82.10
2019-01-14T21:13:22.324Z,73.53
2019-01-14T21:15:53.786Z,67.03
2019-01-14T21:18:24.940Z,65.10
2019-01-14T21:20:56.598Z,59.73
2019-01-14T21:23:27.700Z,57.93
2019-01-14T21:25:59.530Z,59.95
2019-01-14T21:28:32.035Z,60.33
2019-01-14T21:31:03.949Z,77.58
2019-01-14T21:33:35.141Z,68.30
2019-01-14T21:36:06.534Z,80.65
2019-01-14T21:38:37.888Z,73.90
2019-01-14T21:41:09.316Z,67.50
2019-01-14T21:43:40.598Z,70.60
2019-01-14T21:46:12.081Z,62.48
2019-01-14T21:48:43.401Z,50.75
2019-01-14T21:51:14.987Z,45.33
2019-01-14T21:53:46.122Z,48.83
2019-01-14T21:56:17.802Z,46.80
2019-01-14T21:58:49.108Z,53.30
2019-01-14T22:01:20.602Z,51.23
2019-01-14T22:03:52.100Z,52.98
2019-01-14T22:06:23.388Z,59.30
2019-01-14T22:11:38.843Z,69.82
2019-01-14T22:14:10.195Z,65.72
2019-01-14T22:16:41.643Z,60.70
2019-01-14T22:19:14.121Z,69.72
2019-01-14T22:21:45.804Z,62.80
2019-01-14T22:24:17.299Z,60.00
2019-01-14T22:26:48.780Z,55.30
2019-01-14T22:29:20.414Z,56.53
2019-01-14T22:31:51.651Z,53.28
2019-01-14T22:34:23.082Z,53.60
2019-01-14T22:36:54.441Z,55.45
2019-01-14T22:39:26.819Z,50.60
2019-01-14T22:41:58.187Z,51.70
2019-01-14T22:44:29.599Z,52.25
2019-01-14T22:47:01.857Z,52.88
2019-01-14T22:49:33.229Z,51.65
2019-01-14T22:52:04.980Z,51.23
2019-01-14T22:54:36.400Z,49.15
2019-01-14T22:57:07.555Z,49.42
2019-01-14T22:59:39.066Z,51.05
2019-01-14T23:02:11.422Z,58.38
2019-01-14T23:04:43.072Z,56.48
2019-01-14T23:07:14.440Z,61.10
2019-01-14T23:09:48.529Z,56.75
2019-01-14T23:12:20.100Z,62.80
2019-01-14T23:14:52.007Z,60.83
2019-01-14T23:17:23.566Z,70.42
2019-01-14T23:19:55.054Z,68.62
2019-01-14T23:22:26.436Z,76.33
2019-01-14T23:24:58.781Z,94.62
2019-01-14T23:27:30.314Z,102.15
2019-01-14T23:30:01.886Z,125.12
2019-01-14T23:32:33.386Z,122.15
2019-01-14T23:35:05.416Z,107.80
2019-01-14T23:37:37.268Z,94.17
2019-01-14T23:40:09.000Z,85.47
2019-01-14T23:42:40.554Z,74.82
2019-01-14T23:45:12.086Z,65.87
2019-01-14T23:47:43.680Z,56.08
2019-01-14T23:50:15.134Z,52.53
2019-01-14T23:52:46.605Z,52.10
2019-01-14T23:55:17.975Z,47.10
2019-01-14T23:57:49.518Z,43.40
